Wilmington, OH

4:06 AM EDT on July 25, 2016 (GMT -0400)
2.2 N Wilmington | | Change Station

Elev 1053 ft 39.47 °N, 83.84 °W | Updated 9 minutes ago

Mostly Cloudy
Mostly Cloudy
77.3 °F
Feels Like 79 °F
N
2.0
Wind Variable Wind from SW
Gusts 4.0 mph

Today
High -- | Low -- °F
--% Chance of Precip.
Yesterday
High -- | Low -- °F
Precip. -- in
Pressure 29.95 in
Visibility 8.0 miles
Clouds Mostly Cloudy 3500 ft
Heat Index 79 °F
Dew Point 74 °F
Humidity 90%
Rainfall 0.00 in
Snow Depth Not available.
6:29 AM 8:53 PM
Waning Gibbous, 68% visible
METAR KILN 250754Z AUTO 26005KT 8SM BKN035 26/24 A3001 RMK AO2 SLP142 T02560239
Pressure 29.95 in
Visibility 8.0 miles
Clouds Mostly Cloudy 3500 ft
Heat Index 79 °F
Dew Point 74 °F
Humidity 90%
Rainfall 0.00 in
Snow Depth Not available.
6:29 AM 8:53 PM
Waning Gibbous, 68% visible
METAR KILN 250754Z AUTO 26005KT 8SM BKN035 26/24 A3001 RMK AO2 SLP142 T02560239

10-Day Weather Forecast

Almanac

Astronomy

Jul. 25, 2016 Rise Set
Actual Time
Civil Twilight
Nautical Twilight
Astronomical Twilight
Moon
Length of Visible Light
Length of Day
Tomorrow will be .
, % of the Moon is Illuminated

Today's Extremes

State Highs State Lows

Community

WunderPhotos

Upload Photos

1,927,274 photos uploaded!

WunderBlog® & News

Nearby

Air Quality

  Air Quality AQ Index Pollutant
Not available.

Snow Depth

Station Depth Elevation

Earthquake Activity

City Distance Mag. Time & Date
Minimum magnitude displayed is 2.5.

Coastal Water Temperatures

Place Temperature

Stations

Nearby Weather Stations

Station Location Temp. Windchill Dew Point Humidity Wind Precip. Elev Updated Type
                   

Watches & Warnings

There are currently no watches in effect.